Bentley, Canada
Current Conditions -  °F | °C
As of 11:00 PM on Monday 20 Oct 2014 (Local Time) from CYQF Reporting Station
Broken Clouds Broken Clouds  
Wind Chill: 54°   Ceiling: 23000
Heat Index: 54°   Visibility: 15mi
Dew Point: 34°   Wind: 7mph
Humidity: 47%   Direction: 230°SW
Pressure: 29.54"   Gusts: NA
Location:  52.47°N, 114.05°W
Report Text: CYQF 210500Z 23006KT 15SM BKN230 12/01 A2954 RMK CI6 SLP008 DENSITY ALT 3700FT
Loading
Personal Weather Stations






























Interactive Weather Map
Tropical Storm Tracking
New forecast layout! Learn more

10-Day Weather Forecast

Advertisements
Track Severe Weather on mobile